TimePST,TemperatureF,Dew PointF,Humidity,Sea Level PressureIn,VisibilityMPH,Wind Direction,Wind SpeedMPH,Gust SpeedMPH,PrecipitationIn,Events,Conditions,WindDirDegrees,DateUTC
12:32 AM,57.2,53.6,88,29.60,4.0,SSW,13.8,-,0.03,Rain,Heavy Rain,200,2012-11-30 08:32:00
12:53 AM,55.9,53.1,90,29.62,10.0,South,11.5,-,0.03,,Overcast,190,2012-11-30 08:53:00
1:53 AM,57.0,55.0,93,29.62,4.0,SSW,21.9,33.4,0.02,Rain,Light Rain,200,2012-11-30 09:53:00
2:23 AM,57.2,53.6,88,29.61,10.0,SSW,18.4,31.1,0.00,,Overcast,200,2012-11-30 10:23:00
2:50 AM,57.2,53.6,88,29.61,10.0,South,10.4,-,0.00,,Overcast,190,2012-11-30 10:50:00
2:53 AM,57.0,54.0,89,29.63,10.0,South,10.4,-,0.00,,Overcast,190,2012-11-30 10:53:00
3:53 AM,57.9,54.0,87,29.63,10.0,SSW,16.1,27.6,N/A,,Overcast,200,2012-11-30 11:53:00
4:53 AM,57.9,54.0,87,29.63,9.0,South,11.5,20.7,0.00,,Overcast,190,2012-11-30 12:53:00
5:53 AM,57.9,54.0,87,29.65,7.0,SSW,18.4,28.8,N/A,,Overcast,200,2012-11-30 13:53:00
6:24 AM,57.2,53.6,88,29.65,9.0,SSW,19.6,28.8,N/A,,Overcast,210,2012-11-30 14:24:00
6:53 AM,57.0,54.0,89,29.67,10.0,SSW,12.7,20.7,N/A,,Overcast,200,2012-11-30 14:53:00
7:35 AM,57.2,53.6,88,29.67,10.0,SSW,11.5,-,N/A,,Overcast,200,2012-11-30 15:35:00
7:53 AM,57.0,53.1,87,29.68,9.0,SSW,11.5,-,N/A,,Overcast,200,2012-11-30 15:53:00
8:05 AM,57.2,53.6,88,29.68,10.0,South,9.2,-,N/A,,Overcast,190,2012-11-30 16:05:00
8:14 AM,57.2,53.6,88,29.67,10.0,South,8.1,-,N/A,,Overcast,170,2012-11-30 16:14:00
8:53 AM,55.9,53.1,90,29.70,10.0,SSE,9.2,-,N/A,,Overcast,160,2012-11-30 16:53:00
9:53 AM,55.9,52.0,87,29.72,10.0,SSE,8.1,-,0.02,Rain,Light Rain,160,2012-11-30 17:53:00
10:27 AM,55.4,53.6,94,29.71,10.0,South,11.5,-,0.02,Rain,Light Rain,190,2012-11-30 18:27:00
10:53 AM,57.0,54.0,89,29.74,10.0,South,12.7,-,0.02,,Overcast,190,2012-11-30 18:53:00
11:45 AM,60.8,55.4,82,29.72,10.0,SSE,8.1,-,N/A,,Mostly Cloudy,160,2012-11-30 19:45:00
11:53 AM,59.0,54.0,83,29.73,10.0,South,9.2,-,N/A,,Mostly Cloudy,170,2012-11-30 19:53:00
12:24 PM,60.8,53.6,77,29.70,10.0,South,9.2,-,N/A,,Mostly Cloudy,170,2012-11-30 20:24:00
12:53 PM,61.0,52.0,72,29.72,10.0,South,17.3,-,N/A,,Scattered Clouds,170,2012-11-30 20:53:00
1:53 PM,61.0,50.0,67,29.72,10.0,SSW,15.0,23.0,N/A,,Overcast,200,2012-11-30 21:53:00
2:53 PM,57.0,53.1,87,29.73,5.0,SW,16.1,-,0.01,Rain,Light Rain,230,2012-11-30 22:53:00
3:22 PM,57.2,51.8,82,29.73,2.0,South,17.3,24.2,0.05,Rain,Rain,190,2012-11-30 23:22:00
3:53 PM,55.9,52.0,87,29.75,10.0,South,13.8,-,0.05,Rain,Light Rain,170,2012-11-30 23:53:00
4:53 PM,55.0,51.1,86,29.75,10.0,SSE,10.4,-,0.00,,Mostly Cloudy,150,2012-12-01 00:53:00
6:53 PM,55.0,50.0,83,29.75,9.0,South,10.4,-,0.00,Rain,Light Rain,180,2012-12-01 02:53:00
7:53 PM,55.0,50.0,83,29.76,10.0,SSE,11.5,-,0.01,Rain,Light Rain,160,2012-12-01 03:53:00
8:53 PM,55.9,48.9,77,29.76,10.0,South,11.5,23.0,0.00,,Overcast,170,2012-12-01 04:53:00
9:53 PM,55.0,50.0,83,29.76,4.0,South,15.0,23.0,0.03,Rain,Rain,170,2012-12-01 05:53:00
10:53 PM,55.9,48.9,77,29.74,10.0,SSE,18.4,24.2,0.00,,Overcast,160,2012-12-01 06:53:00